createdAt,value
2017-02-17T00:00:14.341Z,0
2017-02-17T00:00:54.789Z,0
2017-02-17T00:01:35.174Z,0
2017-02-17T00:02:15.708Z,0
2017-02-17T00:02:56.164Z,0
2017-02-17T00:03:36.619Z,0
2017-02-17T00:04:17.221Z,0
2017-02-17T00:04:57.637Z,0
2017-02-17T00:05:38.064Z,0
2017-02-17T00:06:18.537Z,0
2017-02-17T00:06:59.025Z,0
2017-02-17T00:07:39.506Z,0
2017-02-17T00:08:19.966Z,0
2017-02-17T00:09:00.468Z,0
2017-02-17T00:09:40.946Z,0
2017-02-17T00:10:21.404Z,0
2017-02-17T00:11:01.828Z,0
2017-02-17T00:11:42.323Z,0
2017-02-17T00:12:22.722Z,0
2017-02-17T00:13:03.190Z,0
2017-02-17T00:13:43.645Z,0
2017-02-17T00:14:24.102Z,0
2017-02-17T00:15:04.509Z,0
2017-02-17T00:15:44.981Z,0
2017-02-17T00:16:25.610Z,0
2017-02-17T00:17:06.113Z,0
2017-02-17T00:17:46.577Z,0
2017-02-17T00:18:26.982Z,0
2017-02-17T00:19:07.431Z,0
2017-02-17T00:19:47.880Z,0
2017-02-17T00:20:28.335Z,0
2017-02-17T00:21:08.767Z,0
2017-02-17T00:21:49.207Z,0
2017-02-17T00:22:29.677Z,0
2017-02-17T00:23:10.144Z,0
2017-02-17T00:23:50.619Z,0
2017-02-17T00:24:31.315Z,0
2017-02-17T00:25:12.473Z,0
2017-02-17T00:25:52.944Z,0
2017-02-17T00:26:33.386Z,0
2017-02-17T00:27:13.866Z,0
2017-02-17T00:27:54.349Z,0
2017-02-17T00:28:34.762Z,0
2017-02-17T00:29:15.254Z,0
2017-02-17T00:29:55.701Z,0
2017-02-17T00:30:36.166Z,0
2017-02-17T00:31:16.770Z,0
2017-02-17T00:31:57.141Z,0
2017-02-17T00:32:37.578Z,0
2017-02-17T00:33:18.021Z,0
2017-02-17T00:33:58.482Z,0
2017-02-17T00:34:39.165Z,0
2017-02-17T00:35:20.023Z,0
2017-02-17T00:36:00.477Z,0
2017-02-17T00:36:40.974Z,0
2017-02-17T00:37:21.497Z,0
2017-02-17T00:38:01.941Z,0
2017-02-17T00:38:42.437Z,0
2017-02-17T00:39:22.898Z,0
2017-02-17T00:40:03.418Z,0
2017-02-17T00:40:43.845Z,0
2017-02-17T00:41:24.570Z,0
2017-02-17T00:42:05.056Z,0
2017-02-17T00:42:45.479Z,0
2017-02-17T00:43:25.946Z,0
2017-02-17T00:44:06.438Z,0
2017-02-17T00:44:47.227Z,0
2017-02-17T00:45:28.077Z,0
2017-02-17T00:46:09.167Z,0
2017-02-17T00:46:49.885Z,0
2017-02-17T00:47:31.354Z,0
2017-02-17T00:48:11.778Z,0
2017-02-17T00:48:52.913Z,0
2017-02-17T00:49:33.848Z,0
2017-02-17T00:50:15.155Z,0
2017-02-17T00:50:55.574Z,0
2017-02-17T00:51:36.048Z,0
2017-02-17T00:52:16.810Z,0
2017-02-17T00:52:57.226Z,0
2017-02-17T00:53:37.676Z,0
2017-02-17T00:54:18.170Z,0
2017-02-17T00:54:58.603Z,0
2017-02-17T00:55:39.084Z,0
2017-02-17T00:56:19.516Z,0
2017-02-17T00:56:59.928Z,0
2017-02-17T00:57:40.395Z,0
2017-02-17T00:58:20.829Z,0
2017-02-17T00:59:01.286Z,0
2017-02-17T00:59:41.751Z,0
2017-02-17T01:00:22.213Z,0
2017-02-17T01:01:02.672Z,0
2017-02-17T01:01:43.075Z,0
2017-02-17T01:02:23.500Z,0
2017-02-17T01:03:03.956Z,0
2017-02-17T01:03:44.452Z,0
2017-02-17T01:04:24.906Z,0
2017-02-17T01:05:05.370Z,0
2017-02-17T01:05:45.824Z,0
2017-02-17T01:06:26.264Z,0
2017-02-17T01:07:06.683Z,0
2017-02-17T01:07:47.150Z,0
2017-02-17T01:08:27.634Z,0
2017-02-17T01:09:08.072Z,0
2017-02-17T01:09:48.523Z,0
2017-02-17T01:10:28.948Z,0
2017-02-17T01:11:09.379Z,0
2017-02-17T01:11:49.854Z,0
2017-02-17T01:12:30.293Z,0
2017-02-17T01:13:10.781Z,0
2017-02-17T01:13:51.198Z,0
2017-02-17T01:14:31.753Z,0
2017-02-17T01:15:12.216Z,0
2017-02-17T01:15:52.629Z,0
2017-02-17T01:16:33.085Z,0
2017-02-17T01:17:13.587Z,0
2017-02-17T01:17:54.005Z,0
2017-02-17T01:18:34.477Z,0
2017-02-17T01:19:14.928Z,0
2017-02-17T01:19:55.376Z,0
2017-02-17T01:20:35.817Z,0
2017-02-17T01:21:16.280Z,0
2017-02-17T01:21:56.700Z,0
2017-02-17T01:22:37.193Z,0
2017-02-17T01:23:17.618Z,0
2017-02-17T01:23:58.065Z,0
2017-02-17T01:24:38.534Z,0
2017-02-17T01:25:18.971Z,0
2017-02-17T01:25:59.481Z,0
2017-02-17T01:26:39.926Z,0
2017-02-17T01:27:20.426Z,0
2017-02-17T01:28:00.923Z,0
2017-02-17T01:28:41.360Z,0
2017-02-17T01:29:21.858Z,0
2017-02-17T01:30:02.288Z,0
2017-02-17T01:30:42.754Z,0
2017-02-17T01:31:23.216Z,0
2017-02-17T01:32:03.712Z,0
2017-02-17T01:32:44.146Z,0
2017-02-17T01:33:24.648Z,0
2017-02-17T01:34:05.069Z,0
2017-02-17T01:34:45.498Z,0
2017-02-17T01:35:25.932Z,0
2017-02-17T01:36:06.396Z,0
2017-02-17T01:36:46.849Z,0
2017-02-17T01:37:27.285Z,0
2017-02-17T01:38:07.724Z,0
2017-02-17T01:38:48.134Z,0
2017-02-17T01:39:28.585Z,0
2017-02-17T01:40:09.032Z,0
2017-02-17T01:40:49.492Z,0
2017-02-17T01:41:29.994Z,0
2017-02-17T01:42:10.427Z,0
2017-02-17T01:42:50.907Z,0
2017-02-17T01:43:31.347Z,0
2017-02-17T01:44:11.821Z,0
2017-02-17T01:44:52.322Z,0
2017-02-17T01:45:32.746Z,0
2017-02-17T01:46:13.210Z,0
2017-02-17T01:46:53.638Z,0
2017-02-17T01:47:34.090Z,0
2017-02-17T01:48:14.536Z,0
2017-02-17T01:48:54.970Z,0
2017-02-17T01:49:35.396Z,0
2017-02-17T01:50:15.851Z,0
2017-02-17T01:50:56.335Z,0
2017-02-17T01:51:36.807Z,0
2017-02-17T01:52:17.257Z,0
2017-02-17T01:52:57.717Z,0
2017-02-17T01:53:38.174Z,0
2017-02-17T01:54:18.670Z,0
2017-02-17T01:54:59.142Z,0
2017-02-17T01:55:39.582Z,0
2017-02-17T01:56:20.060Z,0
2017-02-17T01:57:00.505Z,0
2017-02-17T01:57:40.974Z,0
2017-02-17T01:58:21.422Z,0
2017-02-17T01:59:01.887Z,0
2017-02-17T01:59:42.300Z,0
2017-02-17T02:00:22.736Z,0
2017-02-17T02:01:03.189Z,0
2017-02-17T02:01:43.647Z,0
2017-02-17T02:02:24.060Z,0
2017-02-17T02:03:04.491Z,0
2017-02-17T02:03:44.971Z,0
2017-02-17T02:04:25.481Z,0
2017-02-17T02:05:05.956Z,0
2017-02-17T02:05:46.350Z,0
2017-02-17T02:06:26.850Z,0
2017-02-17T02:07:07.315Z,0
2017-02-17T02:07:47.772Z,0
2017-02-17T02:08:28.217Z,0
2017-02-17T02:09:08.676Z,0
2017-02-17T02:09:49.101Z,0
2017-02-17T02:10:29.582Z,0
2017-02-17T02:11:10.074Z,0
2017-02-17T02:11:50.665Z,0
2017-02-17T02:12:31.125Z,0
2017-02-17T02:13:11.626Z,0
2017-02-17T02:13:52.070Z,0
2017-02-17T02:14:32.522Z,0
2017-02-17T02:15:12.970Z,0
2017-02-17T02:15:53.505Z,0
2017-02-17T02:16:34.013Z,0
2017-02-17T02:17:14.423Z,0
2017-02-17T02:17:54.874Z,0
2017-02-17T02:18:35.308Z,0
2017-02-17T02:19:15.750Z,0
2017-02-17T02:19:56.190Z,0
2017-02-17T02:20:36.622Z,0
2017-02-17T02:21:17.073Z,0
2017-02-17T02:21:57.589Z,0
2017-02-17T02:22:38.049Z,0
2017-02-17T02:23:18.452Z,0
2017-02-17T02:23:58.886Z,0
2017-02-17T02:24:39.340Z,0
2017-02-17T02:25:19.796Z,0
2017-02-17T02:26:00.274Z,0
2017-02-17T02:26:40.694Z,0
2017-02-17T02:27:21.183Z,0
2017-02-17T02:28:01.633Z,0
2017-02-17T02:28:42.098Z,0
2017-02-17T02:29:22.553Z,0
2017-02-17T02:30:02.997Z,0
2017-02-17T02:30:43.480Z,0
2017-02-17T02:31:23.909Z,0
2017-02-17T02:32:04.349Z,0
2017-02-17T02:32:44.797Z,0
2017-02-17T02:33:25.244Z,0
2017-02-17T02:34:05.725Z,0
2017-02-17T02:34:46.147Z,0
2017-02-17T02:35:26.599Z,0
2017-02-17T02:36:07.085Z,0
2017-02-17T02:36:47.490Z,0
2017-02-17T02:37:27.986Z,0
2017-02-17T02:38:08.418Z,0
2017-02-17T02:38:48.862Z,0
2017-02-17T02:39:29.311Z,0
2017-02-17T02:40:09.795Z,0
2017-02-17T02:40:50.312Z,0
2017-02-17T02:41:30.725Z,0
2017-02-17T02:42:11.196Z,0
2017-02-17T02:42:51.670Z,0
2017-02-17T02:43:32.141Z,0
2017-02-17T02:44:12.570Z,0
2017-02-17T02:44:53.025Z,0
2017-02-17T02:45:33.523Z,0
2017-02-17T02:46:13.935Z,0
2017-02-17T02:46:54.409Z,0
2017-02-17T02:47:34.852Z,0
2017-02-17T02:48:15.295Z,0
2017-02-17T02:48:55.717Z,0
2017-02-17T02:49:36.192Z,0
2017-02-17T02:50:16.632Z,0
2017-02-17T02:50:57.095Z,0
2017-02-17T02:51:37.562Z,0
2017-02-17T02:52:18.019Z,0
2017-02-17T02:52:58.946Z,0
2017-02-17T02:53:39.389Z,0
2017-02-17T02:54:19.839Z,0
2017-02-17T02:55:00.306Z,0
2017-02-17T02:55:40.784Z,0
2017-02-17T02:56:21.264Z,0
2017-02-17T02:57:01.672Z,0
2017-02-17T02:57:42.148Z,0
2017-02-17T02:58:22.634Z,0
2017-02-17T02:59:03.114Z,0
2017-02-17T02:59:43.572Z,0
2017-02-17T03:00:24.051Z,0
2017-02-17T03:01:04.530Z,0
2017-02-17T03:01:44.954Z,0
2017-02-17T03:02:25.432Z,0
2017-02-17T03:03:05.862Z,0
2017-02-17T03:03:46.356Z,0
2017-02-17T03:04:26.772Z,0
2017-02-17T03:05:07.193Z,0
2017-02-17T03:05:47.689Z,0
2017-02-17T03:06:28.152Z,0
2017-02-17T03:07:08.591Z,0
2017-02-17T03:07:49.040Z,0
2017-02-17T03:08:29.503Z,0
2017-02-17T03:09:09.946Z,0
2017-02-17T03:09:50.401Z,0
2017-02-17T03:10:30.903Z,0
2017-02-17T03:11:11.352Z,0
2017-02-17T03:11:51.800Z,0
2017-02-17T03:12:32.249Z,0
2017-02-17T03:13:12.788Z,0
2017-02-17T03:13:53.244Z,0
2017-02-17T03:14:33.690Z,0
2017-02-17T03:15:14.120Z,0
2017-02-17T03:15:54.705Z,0
2017-02-17T03:16:35.109Z,0
2017-02-17T03:17:15.620Z,0
2017-02-17T03:17:56.071Z,0
2017-02-17T03:18:36.530Z,0
2017-02-17T03:19:16.988Z,0
2017-02-17T03:19:57.420Z,0
2017-02-17T03:20:37.900Z,0
2017-02-17T03:21:18.291Z,0
2017-02-17T03:21:58.753Z,0
2017-02-17T03:22:39.218Z,0
2017-02-17T03:23:19.630Z,0
2017-02-17T03:24:00.080Z,0
2017-02-17T03:24:40.564Z,0
2017-02-17T03:25:21.017Z,0
2017-02-17T03:26:01.525Z,0
2017-02-17T03:26:41.973Z,0
2017-02-17T03:27:22.500Z,0
2017-02-17T03:28:02.923Z,0
2017-02-17T03:28:43.377Z,0
2017-02-17T03:29:23.827Z,0
2017-02-17T03:30:04.270Z,0
2017-02-17T03:30:44.718Z,0
2017-02-17T03:31:25.201Z,0
2017-02-17T03:32:05.650Z,0
2017-02-17T03:32:46.108Z,0
2017-02-17T03:33:26.588Z,0
2017-02-17T03:34:07.062Z,0
2017-02-17T03:34:47.543Z,0
2017-02-17T03:35:27.950Z,0
2017-02-17T03:36:08.399Z,0
2017-02-17T03:36:48.924Z,0
2017-02-17T03:37:29.368Z,0
2017-02-17T03:38:09.802Z,0
2017-02-17T03:38:50.226Z,0
2017-02-17T03:39:30.675Z,0
2017-02-17T03:40:11.088Z,0
2017-02-17T03:40:51.563Z,0
2017-02-17T03:41:32.039Z,0
2017-02-17T03:42:12.509Z,0
2017-02-17T03:42:52.948Z,0
2017-02-17T03:43:33.393Z,0
2017-02-17T03:44:13.811Z,0
2017-02-17T03:44:54.289Z,0
2017-02-17T03:45:34.731Z,0
2017-02-17T03:46:15.175Z,0
2017-02-17T03:46:55.639Z,0
2017-02-17T03:47:36.072Z,0
2017-02-17T03:48:16.546Z,0
2017-02-17T03:48:56.964Z,0
2017-02-17T03:49:37.408Z,0
2017-02-17T03:50:17.880Z,0
2017-02-17T03:50:58.359Z,0
2017-02-17T03:51:38.761Z,0
2017-02-17T03:52:19.227Z,0
2017-02-17T03:52:59.700Z,0
2017-02-17T03:53:40.160Z,0
2017-02-17T03:54:20.637Z,0
2017-02-17T03:55:01.085Z,0
2017-02-17T03:55:41.507Z,0
2017-02-17T03:56:22.015Z,0
2017-02-17T03:57:02.462Z,0
2017-02-17T03:57:42.885Z,0
2017-02-17T03:58:23.375Z,0
2017-02-17T03:59:03.851Z,0
2017-02-17T03:59:44.303Z,0
2017-02-17T04:00:24.751Z,0
2017-02-17T04:01:05.217Z,0
2017-02-17T04:01:45.679Z,0
2017-02-17T04:02:26.125Z,0
2017-02-17T04:03:06.567Z,0
2017-02-17T04:03:47.031Z,0
2017-02-17T04:04:27.492Z,0
2017-02-17T04:05:07.907Z,0
2017-02-17T04:05:48.351Z,0
2017-02-17T04:06:28.852Z,0
2017-02-17T04:07:09.316Z,0
2017-02-17T04:07:49.843Z,0
2017-02-17T04:08:30.258Z,0
2017-02-17T04:09:10.724Z,0
2017-02-17T04:09:51.163Z,0
2017-02-17T04:10:31.610Z,0
2017-02-17T04:11:12.036Z,0
2017-02-17T04:11:52.475Z,0
2017-02-17T04:12:32.973Z,0
2017-02-17T04:13:13.420Z,0
2017-02-17T04:13:53.872Z,0
2017-02-17T04:14:34.294Z,0
2017-02-17T04:15:14.715Z,0
2017-02-17T04:15:55.180Z,0
2017-02-17T04:16:35.604Z,0
2017-02-17T04:17:16.090Z,0
2017-02-17T04:17:56.471Z,0
2017-02-17T04:18:36.950Z,0
2017-02-17T04:19:17.418Z,0
2017-02-17T04:19:57.883Z,0
2017-02-17T04:20:38.335Z,0
2017-02-17T04:21:18.760Z,0
2017-02-17T04:21:59.206Z,0
2017-02-17T04:22:39.648Z,0
2017-02-17T04:23:20.093Z,0
2017-02-17T04:24:00.602Z,0
2017-02-17T04:24:41.004Z,0
2017-02-17T04:25:21.532Z,0
2017-02-17T04:26:01.979Z,0
2017-02-17T04:26:42.412Z,0
2017-02-17T04:27:22.861Z,0
2017-02-17T04:28:03.356Z,0
2017-02-17T04:28:43.755Z,0
2017-02-17T04:29:24.192Z,0
2017-02-17T04:30:04.687Z,0
2017-02-17T04:30:45.161Z,0
2017-02-17T04:31:25.604Z,0
2017-02-17T04:32:06.157Z,0
2017-02-17T04:32:46.600Z,0
2017-02-17T04:33:27.049Z,0
2017-02-17T04:34:07.470Z,0
2017-02-17T04:34:47.974Z,0
2017-02-17T04:35:28.400Z,0
2017-02-17T04:36:08.827Z,0
2017-02-17T04:36:49.292Z,0
2017-02-17T04:37:29.789Z,0
2017-02-17T04:38:10.231Z,0
2017-02-17T04:38:50.698Z,0
2017-02-17T04:39:31.875Z,0
2017-02-17T04:40:13.091Z,0
2017-02-17T04:40:53.512Z,0
2017-02-17T04:41:33.994Z,0
2017-02-17T04:42:14.526Z,0
2017-02-17T04:42:55.070Z,0
2017-02-17T04:43:35.633Z,0
2017-02-17T04:44:15.980Z,0
2017-02-17T04:44:56.449Z,0
2017-02-17T04:45:36.900Z,0
2017-02-17T04:46:17.320Z,0
2017-02-17T04:46:57.785Z,0
2017-02-17T04:47:38.251Z,0
2017-02-17T04:48:18.873Z,0
2017-02-17T04:48:59.296Z,0
2017-02-17T04:49:39.779Z,0
2017-02-17T04:50:20.227Z,0
2017-02-17T04:51:00.636Z,0
2017-02-17T04:51:41.121Z,0
2017-02-17T04:52:21.564Z,0
2017-02-17T04:53:02.065Z,0
2017-02-17T04:53:42.488Z,0
2017-02-17T04:54:22.995Z,0
2017-02-17T04:55:03.451Z,0
2017-02-17T04:55:43.903Z,0
2017-02-17T04:56:24.315Z,0
2017-02-17T04:57:04.803Z,0
2017-02-17T04:57:45.249Z,0
2017-02-17T04:58:25.720Z,0
2017-02-17T04:59:06.144Z,0
2017-02-17T04:59:46.585Z,0
2017-02-17T05:00:27.043Z,0
2017-02-17T05:01:07.492Z,0
2017-02-17T05:01:47.942Z,0
2017-02-17T05:02:28.387Z,0
2017-02-17T05:03:08.831Z,0
2017-02-17T05:03:49.335Z,0
2017-02-17T05:04:29.733Z,0
2017-02-17T05:05:10.203Z,0
2017-02-17T05:05:50.665Z,0
2017-02-17T05:06:31.128Z,0
2017-02-17T05:07:11.566Z,0
2017-02-17T05:07:52.054Z,0
2017-02-17T05:08:32.486Z,0
2017-02-17T05:09:12.952Z,0
2017-02-17T05:09:53.441Z,0
2017-02-17T05:10:33.830Z,0
2017-02-17T05:11:14.305Z,0
2017-02-17T05:11:54.810Z,0
2017-02-17T05:12:35.322Z,0
2017-02-17T05:13:15.823Z,0
2017-02-17T05:13:56.262Z,0
2017-02-17T05:14:36.723Z,0
2017-02-17T05:15:17.183Z,0
2017-02-17T05:15:57.676Z,0
2017-02-17T05:16:38.074Z,0
2017-02-17T05:17:18.655Z,0
2017-02-17T05:17:59.137Z,0
2017-02-17T05:18:39.587Z,0
2017-02-17T05:19:20.056Z,0
2017-02-17T05:20:00.514Z,0
2017-02-17T05:20:40.966Z,0
2017-02-17T05:21:21.401Z,0
2017-02-17T05:22:01.895Z,0
2017-02-17T05:22:42.356Z,0
2017-02-17T05:23:22.814Z,0
2017-02-17T05:24:03.290Z,0
2017-02-17T05:24:43.714Z,0
2017-02-17T05:25:24.213Z,0
2017-02-17T05:26:04.649Z,0
2017-02-17T05:26:45.075Z,0
2017-02-17T05:27:25.520Z,0
2017-02-17T05:29:43.667Z,0
2017-02-17T05:30:24.101Z,0
2017-02-17T05:31:04.529Z,0
2017-02-17T05:31:45.208Z,0
2017-02-17T05:32:25.850Z,0
2017-02-17T05:33:06.277Z,0
2017-02-17T05:33:46.668Z,0
2017-02-17T05:34:27.126Z,0
2017-02-17T05:35:07.624Z,0
2017-02-17T05:35:48.107Z,0
2017-02-17T05:36:28.799Z,0
2017-02-17T05:37:09.290Z,0
2017-02-17T05:37:49.737Z,0
2017-02-17T05:38:30.192Z,0
2017-02-17T05:39:10.624Z,0
2017-02-17T05:39:51.084Z,0
2017-02-17T05:40:31.512Z,0
2017-02-17T05:41:12.020Z,0
2017-02-17T05:41:52.480Z,0
2017-02-17T05:42:32.922Z,0
2017-02-17T05:43:13.365Z,0
2017-02-17T05:43:53.818Z,0
2017-02-17T05:44:34.257Z,0
2017-02-17T05:45:14.678Z,0
2017-02-17T05:45:55.149Z,0
2017-02-17T05:46:35.592Z,0
2017-02-17T05:47:16.048Z,0
2017-02-17T05:47:56.481Z,0
2017-02-17T05:48:37.142Z,0
2017-02-17T05:49:17.648Z,0
2017-02-17T05:49:58.324Z,0
2017-02-17T05:50:38.849Z,0
2017-02-17T05:51:19.244Z,0
2017-02-17T05:51:59.687Z,0
2017-02-17T05:52:40.317Z,0
2017-02-17T05:53:21.371Z,0
2017-02-17T05:54:01.694Z,0
2017-02-17T05:54:42.958Z,0
2017-02-17T05:55:23.504Z,0
2017-02-17T05:56:03.991Z,0
2017-02-17T05:56:44.437Z,0
2017-02-17T05:57:24.879Z,0
2017-02-17T05:58:05.343Z,0
2017-02-17T05:58:45.769Z,0
2017-02-17T05:59:26.212Z,0
2017-02-17T06:00:06.703Z,0
2017-02-17T06:00:47.162Z,0
2017-02-17T06:01:27.656Z,0
2017-02-17T06:02:08.083Z,0
2017-02-17T06:02:48.527Z,0
2017-02-17T06:03:29.106Z,0
2017-02-17T06:04:09.472Z,0
2017-02-17T06:04:49.929Z,0
2017-02-17T06:05:30.363Z,0
2017-02-17T06:06:10.835Z,0
2017-02-17T06:06:51.289Z,0
2017-02-17T06:07:31.788Z,0
2017-02-17T06:08:12.991Z,0
2017-02-17T06:08:53.502Z,0
2017-02-17T06:09:33.958Z,0
2017-02-17T06:10:14.413Z,0
2017-02-17T06:10:54.853Z,0
2017-02-17T06:11:35.291Z,0
2017-02-17T06:12:15.726Z,0
2017-02-17T06:12:56.165Z,0
2017-02-17T06:13:36.643Z,0
2017-02-17T06:14:17.076Z,0
2017-02-17T06:14:57.546Z,0
2017-02-17T06:15:38.006Z,0
2017-02-17T06:16:18.506Z,0
2017-02-17T06:16:59.154Z,0
2017-02-17T06:17:39.595Z,0
2017-02-17T06:18:20.044Z,0
2017-02-17T06:19:00.492Z,0
2017-02-17T06:19:40.927Z,0
2017-02-17T06:20:21.395Z,0
2017-02-17T06:21:01.835Z,0
2017-02-17T06:21:42.320Z,0
2017-02-17T06:22:22.717Z,0
2017-02-17T06:23:03.138Z,0
2017-02-17T06:23:43.609Z,5
2017-02-17T06:24:24.067Z,5
2017-02-17T06:25:05.034Z,5
2017-02-17T06:25:45.687Z,5
2017-02-17T06:26:26.572Z,5
2017-02-17T06:27:07.498Z,5
2017-02-17T06:27:47.830Z,5
2017-02-17T06:28:28.270Z,5
2017-02-17T06:29:08.722Z,5
2017-02-17T06:29:49.150Z,5
2017-02-17T06:30:29.575Z,10
2017-02-17T06:31:10.027Z,10
2017-02-17T06:31:50.518Z,10
2017-02-17T06:32:30.925Z,10
2017-02-17T06:33:11.377Z,10
2017-02-17T06:33:51.822Z,10
2017-02-17T06:34:32.277Z,10
2017-02-17T06:35:12.726Z,15
2017-02-17T06:35:53.167Z,15
2017-02-17T06:36:33.603Z,15
2017-02-17T06:37:14.365Z,15
2017-02-17T06:37:54.836Z,15
2017-02-17T06:38:35.305Z,15
2017-02-17T06:39:15.783Z,15
2017-02-17T06:39:56.259Z,20
2017-02-17T06:40:36.717Z,20
2017-02-17T06:41:17.159Z,20
2017-02-17T06:41:57.632Z,20
2017-02-17T06:42:38.066Z,20
2017-02-17T06:43:18.501Z,20
2017-02-17T06:43:58.940Z,25
2017-02-17T06:44:39.423Z,25
2017-02-17T06:45:19.821Z,25
2017-02-17T06:46:00.267Z,25
2017-02-17T06:46:40.733Z,30
2017-02-17T06:47:21.150Z,30
2017-02-17T06:48:01.784Z,30
2017-02-17T06:48:42.243Z,30
2017-02-17T06:49:22.683Z,35
2017-02-17T06:50:03.129Z,35
2017-02-17T06:50:43.527Z,40
2017-02-17T06:51:24.006Z,40
2017-02-17T06:52:04.447Z,40
2017-02-17T06:52:44.946Z,40
2017-02-17T06:53:25.371Z,45
2017-02-17T06:54:05.957Z,45
2017-02-17T06:54:46.378Z,45
2017-02-17T06:55:26.861Z,45
2017-02-17T06:56:07.287Z,45
2017-02-17T06:56:47.740Z,45
2017-02-17T06:57:28.189Z,45
2017-02-17T06:58:08.689Z,45
2017-02-17T06:58:49.116Z,50
2017-02-17T06:59:29.564Z,50
2017-02-17T07:00:09.999Z,50
2017-02-17T07:00:50.435Z,55
2017-02-17T07:01:31.059Z,55
2017-02-17T07:02:11.465Z,60
2017-02-17T07:02:51.876Z,60
2017-02-17T07:03:32.355Z,65
2017-02-17T07:04:12.807Z,65
2017-02-17T07:04:53.256Z,70
2017-02-17T07:05:33.830Z,70
2017-02-17T07:06:14.334Z,75
2017-02-17T07:06:54.849Z,75
2017-02-17T07:07:35.201Z,80
2017-02-17T07:08:15.661Z,80
2017-02-17T07:08:56.141Z,80
2017-02-17T07:09:36.567Z,85
2017-02-17T07:10:17.026Z,85
2017-02-17T07:10:57.472Z,85
2017-02-17T07:11:37.898Z,90
2017-02-17T07:12:18.529Z,95
2017-02-17T07:12:59.053Z,100
2017-02-17T07:13:39.401Z,105
2017-02-17T07:14:19.886Z,105
2017-02-17T07:15:00.279Z,110
2017-02-17T07:15:40.808Z,115
2017-02-17T07:16:21.181Z,115
2017-02-17T07:17:01.795Z,115
2017-02-17T07:17:42.333Z,115
2017-02-17T07:18:22.776Z,110
2017-02-17T07:19:03.326Z,110
2017-02-17T07:19:43.750Z,110
2017-02-17T07:20:24.179Z,115
2017-02-17T07:21:04.625Z,115
2017-02-17T07:21:45.103Z,115
2017-02-17T07:22:25.531Z,115
2017-02-17T07:23:06.005Z,115
2017-02-17T07:23:46.473Z,120
2017-02-17T07:24:26.926Z,120
2017-02-17T07:25:07.358Z,125
2017-02-17T07:25:47.820Z,125
2017-02-17T07:26:28.279Z,130
2017-02-17T07:27:08.872Z,135
2017-02-17T07:27:49.305Z,145
2017-02-17T07:28:29.891Z,160
2017-02-17T07:29:10.674Z,175
2017-02-17T07:29:50.921Z,190
2017-02-17T07:30:31.479Z,200
2017-02-17T07:31:11.798Z,210
2017-02-17T07:31:52.271Z,215
2017-02-17T07:32:32.987Z,215
2017-02-17T07:33:13.426Z,220
2017-02-17T07:33:53.902Z,230
2017-02-17T07:34:34.452Z,230
2017-02-17T07:35:15.114Z,230
2017-02-17T07:35:55.592Z,230
2017-02-17T07:36:36.106Z,235
2017-02-17T07:37:18.391Z,240
2017-02-17T07:37:58.807Z,240
2017-02-17T07:38:39.316Z,230
2017-02-17T07:39:19.777Z,225
2017-02-17T07:40:00.212Z,210
2017-02-17T07:40:40.635Z,200
2017-02-17T07:41:21.099Z,185
2017-02-17T07:42:01.518Z,175
2017-02-17T07:42:42.017Z,170
2017-02-17T07:43:22.468Z,160
2017-02-17T07:44:02.925Z,140
2017-02-17T07:44:43.375Z,125
2017-02-17T07:45:23.847Z,120
2017-02-17T07:46:04.267Z,115
2017-02-17T07:46:44.718Z,115
2017-02-17T07:47:25.170Z,115
2017-02-17T07:48:05.602Z,120
2017-02-17T07:48:46.399Z,120
2017-02-17T07:49:27.123Z,120
2017-02-17T07:50:07.510Z,125
2017-02-17T07:50:48.014Z,130
2017-02-17T07:51:28.474Z,135
2017-02-17T07:52:09.126Z,150
2017-02-17T07:52:49.625Z,165
2017-02-17T07:53:30.032Z,185
2017-02-17T07:54:10.438Z,200
2017-02-17T07:54:50.973Z,205
2017-02-17T07:55:31.335Z,210
2017-02-17T07:56:11.776Z,210
2017-02-17T07:56:52.258Z,215
2017-02-17T07:57:32.741Z,215
2017-02-17T07:58:13.186Z,220
2017-02-17T07:58:53.644Z,225
2017-02-17T07:59:34.099Z,225
2017-02-17T08:00:14.704Z,225
2017-02-17T08:00:55.212Z,230
2017-02-17T08:01:35.547Z,230
2017-02-17T08:02:16.039Z,230
2017-02-17T08:02:56.479Z,240
2017-02-17T08:03:36.918Z,235
2017-02-17T08:04:17.358Z,235
2017-02-17T08:04:57.877Z,235
2017-02-17T08:05:38.331Z,240
2017-02-17T08:06:18.765Z,240
2017-02-17T08:06:59.256Z,240
2017-02-17T08:07:39.711Z,245
2017-02-17T08:08:20.149Z,245
2017-02-17T08:09:00.635Z,250
2017-02-17T08:09:41.840Z,250
2017-02-17T08:10:22.292Z,250
2017-02-17T08:11:02.794Z,250
2017-02-17T08:11:43.741Z,255
2017-02-17T08:12:24.781Z,255
2017-02-17T08:13:05.782Z,260
2017-02-17T08:13:46.569Z,265
2017-02-17T08:14:27.072Z,270
2017-02-17T08:15:07.599Z,270
2017-02-17T08:15:48.025Z,275
2017-02-17T08:16:28.618Z,280
2017-02-17T08:17:08.945Z,285
2017-02-17T08:17:49.413Z,285
2017-02-17T08:18:30.008Z,285
2017-02-17T08:19:10.454Z,295
2017-02-17T08:19:50.893Z,295
2017-02-17T08:20:31.379Z,295
2017-02-17T08:21:11.999Z,295
2017-02-17T08:21:52.344Z,295
2017-02-17T08:22:32.777Z,300
2017-02-17T08:23:13.365Z,300
2017-02-17T08:23:53.832Z,305
2017-02-17T08:24:34.322Z,310
2017-02-17T08:25:14.801Z,315
2017-02-17T08:25:55.775Z,320
2017-02-17T08:26:36.104Z,325
2017-02-17T08:27:16.565Z,325
2017-02-17T08:27:57.016Z,330
2017-02-17T08:28:37.504Z,330
2017-02-17T08:29:18.316Z,335
2017-02-17T08:31:46.474Z,355
2017-02-17T08:32:26.883Z,360
2017-02-17T08:33:07.342Z,365
2017-02-17T08:33:47.819Z,370
2017-02-17T08:34:28.238Z,375
2017-02-17T08:35:08.720Z,380
2017-02-17T08:35:49.222Z,370
2017-02-17T08:36:29.712Z,375
2017-02-17T08:37:10.127Z,380
2017-02-17T08:37:50.578Z,385
2017-02-17T08:38:31.397Z,385
2017-02-17T08:39:12.357Z,390
2017-02-17T08:39:53.175Z,395
2017-02-17T08:40:33.618Z,395
2017-02-17T08:41:14.091Z,405
2017-02-17T08:41:54.521Z,400
2017-02-17T08:42:35.006Z,410
2017-02-17T08:43:15.463Z,420
2017-02-17T08:43:55.886Z,425
2017-02-17T08:44:36.329Z,430
2017-02-17T08:45:16.806Z,435
2017-02-17T08:45:57.277Z,440
2017-02-17T08:46:37.761Z,455
2017-02-17T08:47:18.145Z,475
2017-02-17T08:47:58.605Z,500
2017-02-17T08:48:39.077Z,520
2017-02-17T08:49:19.561Z,540
2017-02-17T08:50:00.008Z,560
2017-02-17T08:50:40.454Z,565
2017-02-17T08:51:20.881Z,575
2017-02-17T08:52:01.318Z,570
2017-02-17T08:52:41.800Z,550
2017-02-17T08:53:22.252Z,540
2017-02-17T08:54:02.730Z,550
2017-02-17T08:54:43.179Z,545
2017-02-17T08:55:24.848Z,540
2017-02-17T08:56:05.301Z,530
2017-02-17T08:56:45.792Z,520
2017-02-17T08:57:26.242Z,505
2017-02-17T08:58:06.692Z,515
2017-02-17T08:58:48.001Z,485
2017-02-17T08:59:28.477Z,425
2017-02-17T09:00:09.147Z,400
2017-02-17T09:00:49.583Z,420
2017-02-17T09:01:30.132Z,520
2017-02-17T09:02:10.628Z,525
2017-02-17T09:02:51.505Z,595
2017-02-17T09:03:31.977Z,555
2017-02-17T09:04:12.465Z,640
2017-02-17T09:04:52.869Z,680
2017-02-17T09:05:33.353Z,625
2017-02-17T09:06:13.832Z,475
2017-02-17T09:06:54.357Z,415
2017-02-17T09:07:34.842Z,410
2017-02-17T09:08:15.303Z,405
2017-02-17T09:08:55.715Z,490
2017-02-17T09:09:36.157Z,540
2017-02-17T09:10:16.586Z,535
2017-02-17T09:12:49.885Z,410
2017-02-17T09:13:30.368Z,340
2017-02-17T09:14:10.853Z,360
2017-02-17T09:14:51.283Z,430
2017-02-17T09:15:31.973Z,555
2017-02-17T09:16:12.236Z,635
2017-02-17T09:16:52.666Z,615
2017-02-17T09:17:33.150Z,465
2017-02-17T09:18:13.610Z,510
2017-02-17T09:18:54.045Z,420
2017-02-17T09:19:34.509Z,530
2017-02-17T09:20:15.032Z,580
2017-02-17T09:20:55.489Z,650
2017-02-17T09:21:35.988Z,485
2017-02-17T09:22:16.443Z,605
2017-02-17T09:22:56.907Z,690
2017-02-17T09:23:37.348Z,725
2017-02-17T09:24:17.818Z,750
2017-02-17T09:24:58.294Z,755
2017-02-17T09:25:38.754Z,770
2017-02-17T09:26:19.193Z,780
2017-02-17T09:26:59.657Z,705
2017-02-17T09:27:40.073Z,800
2017-02-17T09:28:20.519Z,845
2017-02-17T09:29:00.979Z,900
2017-02-17T09:29:41.412Z,790
2017-02-17T09:30:21.947Z,845
2017-02-17T09:31:02.339Z,995
2017-02-17T09:31:42.809Z,1020
2017-02-17T09:32:23.261Z,915
2017-02-17T09:33:03.812Z,700
2017-02-17T09:33:44.238Z,650
2017-02-17T09:34:24.660Z,595
2017-02-17T09:35:05.155Z,585
2017-02-17T09:35:45.679Z,645
2017-02-17T09:36:26.098Z,570
2017-02-17T09:37:06.443Z,575
2017-02-17T09:37:46.855Z,610
2017-02-17T09:38:27.292Z,660
2017-02-17T09:39:07.735Z,685
2017-02-17T09:39:48.224Z,720
2017-02-17T09:40:28.619Z,775
2017-02-17T09:41:09.047Z,780
2017-02-17T09:41:49.509Z,805
2017-02-17T09:42:29.929Z,835
2017-02-17T09:43:10.373Z,835
2017-02-17T09:43:50.766Z,845
2017-02-17T09:44:31.255Z,775
2017-02-17T09:45:11.723Z,760
2017-02-17T09:45:52.151Z,615
2017-02-17T09:46:32.567Z,645
2017-02-17T09:47:12.990Z,660
2017-02-17T09:47:53.430Z,660
2017-02-17T09:48:33.878Z,740
2017-02-17T09:49:14.286Z,810
2017-02-17T09:49:54.729Z,785
2017-02-17T09:50:35.160Z,750